createdAt,value
2017-07-19T00:01:43.392Z,5.07
2017-07-19T00:04:10.904Z,5.77
2017-07-19T00:06:38.476Z,5.27
2017-07-19T00:09:05.984Z,5.30
2017-07-19T00:11:33.528Z,5.50
2017-07-19T00:14:01.074Z,5.07
2017-07-19T00:16:28.619Z,5.00
2017-07-19T00:18:56.159Z,5.20
2017-07-19T00:21:23.700Z,5.40
2017-07-19T00:23:51.248Z,5.10
2017-07-19T00:26:18.796Z,5.50
2017-07-19T00:28:46.284Z,5.37
2017-07-19T00:31:13.877Z,5.63
2017-07-19T00:33:41.424Z,5.57
2017-07-19T00:36:08.901Z,5.10
2017-07-19T00:38:37.189Z,5.17
2017-07-19T00:41:04.927Z,5.23
2017-07-19T00:43:32.467Z,5.37
2017-07-19T00:46:00.017Z,5.23
2017-07-19T00:48:27.556Z,5.53
2017-07-19T00:50:55.105Z,5.70
2017-07-19T00:53:22.645Z,5.67
2017-07-19T00:55:50.190Z,5.00
2017-07-19T00:58:17.733Z,5.27
2017-07-19T01:00:45.274Z,5.00
2017-07-19T01:03:12.821Z,5.33
2017-07-19T01:05:40.297Z,5.30
2017-07-19T01:08:07.802Z,5.40
2017-07-19T01:10:35.288Z,5.43
2017-07-19T01:13:02.790Z,5.73
2017-07-19T01:15:30.301Z,5.80
2017-07-19T01:17:57.872Z,6.50
2017-07-19T01:20:25.384Z,6.10
2017-07-19T01:22:53.785Z,6.60
2017-07-19T01:25:21.260Z,6.07
2017-07-19T01:27:48.737Z,6.30
2017-07-19T01:30:16.308Z,5.80
2017-07-19T01:32:43.856Z,5.57
2017-07-19T01:35:11.332Z,5.80
2017-07-19T01:37:38.855Z,6.07
2017-07-19T01:40:06.352Z,5.90
2017-07-19T01:42:33.835Z,6.57
2017-07-19T01:45:01.429Z,5.80
2017-07-19T01:47:28.916Z,6.47
2017-07-19T01:49:56.532Z,6.13
2017-07-19T01:52:24.156Z,6.00
2017-07-19T01:54:51.709Z,5.90
2017-07-19T01:57:19.248Z,6.27
2017-07-19T01:59:46.791Z,6.20
2017-07-19T02:02:14.273Z,5.90
2017-07-19T02:04:41.760Z,6.27
2017-07-19T02:07:10.040Z,6.43
2017-07-19T02:09:37.575Z,6.70
2017-07-19T02:12:05.124Z,6.03
2017-07-19T02:14:32.669Z,6.30
2017-07-19T02:17:00.417Z,6.40
2017-07-19T02:19:27.906Z,6.80
2017-07-19T02:21:55.392Z,6.77
2017-07-19T02:24:22.944Z,6.30
2017-07-19T02:26:50.426Z,6.53
2017-07-19T02:29:17.908Z,6.67
2017-07-19T02:31:46.352Z,6.73
2017-07-19T02:34:13.825Z,6.70
2017-07-19T02:36:42.100Z,6.53
2017-07-19T02:39:09.616Z,6.37
2017-07-19T02:41:37.093Z,6.87
2017-07-19T02:44:04.574Z,7.10
2017-07-19T02:46:32.860Z,7.83
2017-07-19T02:49:00.345Z,7.50
2017-07-19T02:51:27.844Z,7.17
2017-07-19T02:53:55.336Z,7.30
2017-07-19T02:56:22.811Z,7.60
2017-07-19T02:58:51.084Z,7.17
2017-07-19T03:01:18.568Z,7.30
2017-07-19T03:03:46.053Z,7.10
2017-07-19T03:06:14.541Z,7.60
2017-07-19T03:08:42.085Z,7.07
2017-07-19T03:11:09.571Z,7.33
2017-07-19T03:13:37.176Z,7.90
2017-07-19T03:16:04.715Z,8.40
2017-07-19T03:18:32.192Z,7.90
2017-07-19T03:20:59.710Z,6.97
2017-07-19T03:23:27.244Z,7.93
2017-07-19T03:25:54.748Z,8.67
2017-07-19T03:28:22.333Z,7.60
2017-07-19T03:30:49.873Z,8.47
2017-07-19T03:33:17.412Z,8.00
2017-07-19T03:35:44.961Z,8.00
2017-07-19T03:38:12.508Z,7.97
2017-07-19T03:40:40.024Z,8.70
2017-07-19T03:43:07.544Z,8.73
2017-07-19T03:45:35.025Z,8.10
2017-07-19T03:48:02.543Z,8.33
2017-07-19T03:50:30.029Z,7.97
2017-07-19T03:52:57.616Z,8.10
2017-07-19T03:55:25.132Z,9.70
2017-07-19T03:57:52.700Z,8.77
2017-07-19T04:00:20.248Z,9.07
2017-07-19T04:02:47.747Z,8.70
2017-07-19T04:05:15.334Z,8.43
2017-07-19T04:07:42.821Z,9.40
2017-07-19T04:10:10.420Z,9.53
2017-07-19T04:12:37.960Z,9.60
2017-07-19T04:15:05.449Z,8.47
2017-07-19T04:17:33.052Z,10.27
2017-07-19T04:20:00.593Z,9.03
2017-07-19T04:22:28.077Z,9.57
2017-07-19T04:24:55.576Z,9.53
2017-07-19T04:27:23.128Z,9.83
2017-07-19T04:29:50.663Z,9.23
2017-07-19T04:32:18.164Z,9.90
2017-07-19T04:34:45.665Z,9.50
2017-07-19T04:37:13.243Z,10.10
2017-07-19T04:39:40.829Z,9.73
2017-07-19T04:42:08.369Z,9.50
2017-07-19T04:44:35.919Z,9.50
2017-07-19T04:47:03.405Z,9.70
2017-07-19T04:49:31.821Z,9.80
2017-07-19T04:51:59.412Z,9.60
2017-07-19T04:54:26.904Z,9.27
2017-07-19T04:56:54.416Z,8.50
2017-07-19T04:59:21.896Z,9.30
2017-07-19T05:01:49.436Z,8.80
2017-07-19T05:04:16.953Z,9.37
2017-07-19T05:06:44.517Z,9.10
2017-07-19T05:09:12.001Z,9.43
2017-07-19T05:11:39.503Z,8.53
2017-07-19T05:14:07.044Z,8.90
2017-07-19T05:16:34.595Z,9.07
2017-07-19T05:19:02.076Z,9.60
2017-07-19T05:21:29.558Z,9.03
2017-07-19T05:23:57.932Z,9.10
2017-07-19T05:26:25.409Z,9.63
2017-07-19T05:28:52.921Z,8.63
2017-07-19T05:31:20.412Z,9.70
2017-07-19T05:33:47.897Z,9.20
2017-07-19T05:36:16.372Z,9.27
2017-07-19T05:38:43.856Z,9.50
2017-07-19T05:41:11.337Z,8.50
2017-07-19T05:43:38.936Z,9.50
2017-07-19T05:46:06.481Z,9.10
2017-07-19T05:48:34.026Z,8.20
2017-07-19T05:51:01.697Z,8.63
2017-07-19T05:53:29.212Z,10.70
2017-07-19T05:55:56.683Z,8.27
2017-07-19T05:58:24.262Z,8.90
2017-07-19T06:00:51.841Z,8.60
2017-07-19T06:03:19.337Z,8.60
2017-07-19T06:05:46.924Z,8.23
2017-07-19T06:08:14.404Z,8.27
2017-07-19T06:10:41.884Z,9.20
2017-07-19T06:13:09.661Z,8.40
2017-07-19T06:15:37.204Z,10.37
2017-07-19T06:18:04.684Z,9.70
2017-07-19T06:20:32.193Z,11.00
2017-07-19T06:22:59.732Z,9.40
2017-07-19T06:25:27.272Z,8.67
2017-07-19T06:27:54.752Z,8.57
2017-07-19T06:30:22.237Z,7.90
2017-07-19T06:32:50.621Z,8.53
2017-07-19T06:35:18.164Z,9.60
2017-07-19T06:37:45.644Z,8.00
2017-07-19T06:40:13.261Z,8.70
2017-07-19T06:42:40.744Z,8.13
2017-07-19T06:45:08.234Z,10.20
2017-07-19T06:47:35.768Z,10.37
2017-07-19T06:50:04.008Z,8.13
2017-07-19T06:52:31.584Z,7.40
2017-07-19T06:54:59.097Z,8.07
2017-07-19T06:57:26.672Z,7.83
2017-07-19T06:59:54.220Z,7.40
2017-07-19T07:02:21.721Z,7.43
2017-07-19T07:04:49.197Z,7.70
2017-07-19T07:07:16.752Z,6.87
2017-07-19T07:09:44.261Z,7.10
2017-07-19T07:12:12.513Z,7.00
2017-07-19T07:14:40.088Z,7.00
2017-07-19T07:17:07.604Z,7.40
2017-07-19T07:19:35.178Z,6.50
2017-07-19T07:22:02.657Z,6.90
2017-07-19T07:24:30.265Z,6.93
2017-07-19T07:26:57.812Z,7.40
2017-07-19T07:29:25.347Z,7.13
2017-07-19T07:31:53.120Z,7.30
2017-07-19T07:34:20.640Z,6.07
2017-07-19T07:36:48.184Z,6.20
2017-07-19T07:39:15.760Z,7.47
2017-07-19T07:41:43.303Z,6.90
2017-07-19T07:44:10.844Z,6.53
2017-07-19T07:46:38.345Z,7.30
2017-07-19T07:49:05.925Z,6.47
2017-07-19T07:51:33.413Z,7.03
2017-07-19T07:54:00.905Z,6.33
2017-07-19T07:56:29.175Z,7.10
2017-07-19T07:58:56.820Z,6.53
2017-07-19T08:01:24.300Z,6.60
2017-07-19T08:03:52.013Z,7.80
2017-07-19T08:06:19.556Z,8.83
2017-07-19T08:08:47.101Z,7.43
2017-07-19T08:11:14.645Z,8.30
2017-07-19T08:13:42.185Z,7.90
2017-07-19T08:16:09.735Z,7.77
2017-07-19T08:18:37.273Z,8.53
2017-07-19T08:21:04.750Z,7.00
2017-07-19T08:23:32.491Z,6.30
2017-07-19T08:25:59.978Z,6.80
2017-07-19T08:28:28.268Z,6.30
2017-07-19T08:30:56.004Z,7.83
2017-07-19T08:33:24.376Z,7.60
2017-07-19T08:35:51.929Z,30.53
2017-07-19T08:38:19.467Z,8.40
2017-07-19T08:40:46.964Z,12.33
2017-07-19T08:43:14.509Z,7.53
2017-07-19T08:45:42.052Z,7.10
2017-07-19T08:48:09.796Z,7.53
2017-07-19T08:50:37.284Z,7.67
2017-07-19T08:53:04.757Z,6.50
2017-07-19T08:55:33.149Z,7.67
2017-07-19T08:58:00.693Z,7.63
2017-07-19T09:00:28.239Z,8.33
2017-07-19T09:02:55.745Z,6.83
2017-07-19T09:05:23.321Z,8.23
2017-07-19T09:07:50.804Z,8.50
2017-07-19T09:10:18.308Z,6.10
2017-07-19T09:12:45.784Z,6.40
2017-07-19T09:15:13.292Z,6.67
2017-07-19T09:17:40.804Z,6.73
2017-07-19T09:20:09.616Z,9.33
2017-07-19T09:22:37.144Z,9.50
2017-07-19T09:25:04.696Z,17.50
2017-07-19T09:27:32.182Z,7.40
2017-07-19T09:29:59.676Z,7.33
2017-07-19T09:32:27.223Z,7.20
2017-07-19T09:34:54.705Z,7.87
2017-07-19T09:37:22.208Z,7.20
2017-07-19T09:39:49.728Z,7.00
2017-07-19T09:42:17.274Z,7.37
2017-07-19T09:44:44.820Z,7.07
2017-07-19T09:47:12.299Z,6.90
2017-07-19T09:49:39.781Z,6.40
2017-07-19T09:52:08.060Z,6.83
2017-07-19T09:54:35.539Z,6.60
2017-07-19T09:57:03.252Z,6.80
2017-07-19T09:59:30.796Z,6.90
2017-07-19T10:01:58.275Z,7.40
2017-07-19T10:04:25.776Z,6.97
2017-07-19T10:06:53.328Z,7.30
2017-07-19T10:09:20.805Z,7.17
2017-07-19T10:11:48.412Z,7.17
2017-07-19T10:14:15.892Z,7.57
2017-07-19T10:16:43.393Z,6.80
2017-07-19T10:19:10.940Z,7.30
2017-07-19T10:21:38.429Z,7.73
2017-07-19T10:24:05.921Z,7.10
2017-07-19T10:26:33.436Z,6.50
2017-07-19T10:29:01.004Z,7.50
2017-07-19T10:31:28.549Z,7.33
2017-07-19T10:33:56.196Z,7.20
2017-07-19T10:36:23.744Z,6.73
2017-07-19T10:38:51.348Z,7.30
2017-07-19T10:41:18.900Z,7.53
2017-07-19T10:43:46.466Z,6.27
2017-07-19T10:46:13.984Z,6.77
2017-07-19T10:48:41.525Z,6.77
2017-07-19T10:51:09.028Z,7.13
2017-07-19T10:53:36.612Z,7.10
2017-07-19T10:56:04.120Z,6.80
2017-07-19T10:58:31.697Z,7.83
2017-07-19T11:00:59.241Z,7.80
2017-07-19T11:03:26.844Z,6.60
2017-07-19T11:05:54.428Z,6.80
2017-07-19T11:08:21.940Z,7.20
2017-07-19T11:10:49.456Z,7.07
2017-07-19T11:13:16.964Z,7.10
2017-07-19T11:15:44.500Z,6.50
2017-07-19T11:18:12.145Z,6.53
2017-07-19T11:20:39.688Z,6.83
2017-07-19T11:23:07.229Z,7.20
2017-07-19T11:25:34.776Z,6.63
2017-07-19T11:28:02.326Z,6.57
2017-07-19T11:30:29.869Z,6.77
2017-07-19T11:32:57.389Z,6.40
2017-07-19T11:35:25.671Z,6.30
2017-07-19T11:37:53.213Z,6.00
2017-07-19T11:40:20.704Z,6.57
2017-07-19T11:42:48.287Z,6.03
2017-07-19T11:45:15.827Z,5.60
2017-07-19T11:47:43.369Z,6.00
2017-07-19T11:50:10.917Z,7.10
2017-07-19T11:52:38.556Z,6.37
2017-07-19T11:55:06.104Z,6.43
2017-07-19T11:57:33.589Z,6.43
2017-07-19T12:00:01.185Z,6.07
2017-07-19T12:02:28.664Z,5.70
2017-07-19T12:04:56.173Z,6.00
2017-07-19T12:07:23.717Z,5.60
2017-07-19T12:09:51.196Z,5.80
2017-07-19T12:12:18.700Z,5.93
2017-07-19T12:14:46.251Z,4.63
2017-07-19T12:17:13.790Z,6.23
2017-07-19T12:19:41.328Z,5.20
2017-07-19T12:22:08.875Z,5.60
2017-07-19T12:24:36.360Z,5.17
2017-07-19T12:27:03.917Z,5.90
2017-07-19T12:29:31.406Z,5.27
2017-07-19T12:31:58.891Z,5.03
2017-07-19T12:34:26.517Z,5.87
2017-07-19T12:36:54.006Z,6.73
2017-07-19T12:39:21.492Z,5.73
2017-07-19T12:41:49.176Z,6.33
2017-07-19T12:44:16.725Z,5.20
2017-07-19T12:46:44.221Z,5.17
2017-07-19T12:49:11.717Z,5.47
2017-07-19T12:51:39.193Z,5.30
2017-07-19T12:54:06.745Z,4.50
2017-07-19T12:56:34.495Z,4.70
2017-07-19T12:59:01.973Z,5.23
2017-07-19T13:01:29.457Z,5.00
2017-07-19T13:03:57.741Z,5.13
2017-07-19T13:06:25.216Z,4.60
2017-07-19T13:08:52.728Z,6.23
2017-07-19T13:11:20.272Z,5.33
2017-07-19T13:13:47.846Z,5.67
2017-07-19T13:16:15.357Z,4.50
2017-07-19T13:18:42.837Z,4.03
2017-07-19T13:21:10.342Z,3.87
2017-07-19T13:23:37.888Z,4.40
2017-07-19T13:26:05.425Z,4.20
2017-07-19T13:28:32.976Z,3.87
2017-07-19T13:31:00.465Z,4.30
2017-07-19T13:33:27.939Z,4.03
2017-07-19T13:35:56.224Z,3.90
2017-07-19T13:38:23.695Z,4.67
2017-07-19T13:40:51.969Z,4.63
2017-07-19T13:43:19.712Z,4.20
2017-07-19T13:45:47.204Z,4.13
2017-07-19T13:48:14.680Z,5.00
2017-07-19T13:50:42.931Z,4.80
2017-07-19T13:53:10.500Z,4.70
2017-07-19T13:55:38.048Z,5.10
2017-07-19T13:58:05.720Z,4.83
2017-07-19T14:00:33.195Z,5.07
2017-07-19T14:03:00.776Z,5.60
2017-07-19T14:05:28.324Z,8.43
2017-07-19T14:07:55.869Z,5.10
2017-07-19T14:10:23.348Z,5.40
2017-07-19T14:12:50.952Z,5.67
2017-07-19T14:15:18.503Z,5.63
2017-07-19T14:17:46.049Z,5.20
2017-07-19T14:20:13.577Z,5.07
2017-07-19T14:22:41.824Z,5.47
2017-07-19T14:25:09.388Z,5.37
2017-07-19T14:27:36.932Z,4.93
2017-07-19T14:30:04.408Z,5.30
2017-07-19T14:32:31.917Z,5.60
2017-07-19T14:34:59.458Z,5.20
2017-07-19T14:37:27.000Z,4.87
2017-07-19T14:39:54.510Z,5.30
2017-07-19T14:42:22.089Z,5.60
2017-07-19T14:44:49.584Z,5.27
2017-07-19T14:47:17.168Z,5.10
2017-07-19T14:49:44.650Z,5.10
2017-07-19T14:52:12.124Z,5.40
2017-07-19T14:54:39.705Z,5.20
2017-07-19T14:57:07.190Z,5.13
2017-07-19T14:59:34.692Z,5.70
2017-07-19T15:02:02.173Z,5.80
2017-07-19T15:04:29.679Z,6.53
2017-07-19T15:06:57.380Z,6.90
2017-07-19T15:09:24.857Z,6.87
2017-07-19T15:11:52.337Z,6.80
2017-07-19T15:14:20.050Z,7.40
2017-07-19T15:16:47.530Z,6.60
2017-07-19T15:19:15.005Z,7.23
2017-07-19T15:21:42.513Z,7.23
2017-07-19T15:24:09.997Z,7.47
2017-07-19T15:26:38.246Z,6.17
2017-07-19T15:29:05.820Z,4.80
2017-07-19T15:31:33.300Z,5.87
2017-07-19T15:34:00.784Z,5.23
2017-07-19T15:36:29.068Z,5.70
2017-07-19T15:38:56.557Z,5.63
2017-07-19T15:41:24.048Z,5.97
2017-07-19T15:43:51.568Z,6.27
2017-07-19T15:46:19.825Z,6.03
2017-07-19T15:48:47.308Z,7.20
2017-07-19T15:51:15.044Z,6.90
2017-07-19T15:53:42.591Z,7.93
2017-07-19T15:56:10.129Z,7.80
2017-07-19T15:58:37.678Z,7.70
2017-07-19T16:01:05.156Z,6.70
2017-07-19T16:03:32.860Z,7.07
2017-07-19T16:06:00.412Z,6.43
2017-07-19T16:08:27.896Z,7.77
2017-07-19T16:10:55.500Z,7.80
2017-07-19T16:13:23.040Z,7.97
2017-07-19T16:15:50.582Z,7.00
2017-07-19T16:18:18.077Z,7.83
2017-07-19T16:20:45.556Z,6.00
2017-07-19T16:23:13.837Z,5.63
2017-07-19T16:25:41.320Z,6.23
2017-07-19T16:28:08.815Z,5.50
2017-07-19T16:30:36.464Z,5.60
2017-07-19T16:33:03.995Z,4.47
2017-07-19T16:35:31.477Z,4.70
2017-07-19T16:37:58.989Z,4.67
2017-07-19T16:40:26.473Z,4.57
2017-07-19T16:42:53.965Z,4.90
2017-07-19T16:45:21.505Z,4.60
2017-07-19T16:47:49.048Z,5.50
2017-07-19T16:50:16.598Z,5.57
2017-07-19T16:52:44.345Z,6.20
2017-07-19T16:55:11.882Z,5.43
2017-07-19T16:57:39.368Z,5.00
2017-07-19T17:00:06.857Z,4.93
2017-07-19T17:02:35.132Z,6.23
2017-07-19T17:05:02.896Z,5.87
2017-07-19T17:07:30.416Z,5.77
2017-07-19T17:09:57.900Z,5.00
2017-07-19T17:12:25.512Z,4.87
2017-07-19T17:14:52.993Z,5.00
2017-07-19T17:17:20.500Z,5.20
2017-07-19T17:19:47.993Z,4.03
2017-07-19T17:22:15.469Z,4.70
2017-07-19T17:24:43.229Z,4.40
2017-07-19T17:27:10.718Z,4.03
2017-07-19T17:29:38.196Z,4.10
2017-07-19T17:32:06.568Z,4.40
2017-07-19T17:34:34.045Z,3.90
2017-07-19T17:37:01.553Z,3.97
2017-07-19T17:39:29.080Z,3.50
2017-07-19T17:41:56.562Z,3.50
2017-07-19T17:44:24.068Z,4.30
2017-07-19T17:46:51.613Z,4.30
2017-07-19T17:49:19.156Z,3.50
2017-07-19T17:51:46.702Z,4.27
2017-07-19T17:54:14.247Z,4.07
2017-07-19T17:56:41.788Z,3.80
2017-07-19T17:59:09.324Z,4.30
2017-07-19T18:01:36.868Z,3.70
2017-07-19T18:04:04.348Z,4.00
2017-07-19T18:06:31.825Z,3.73
2017-07-19T18:08:59.409Z,3.87
2017-07-19T18:11:26.897Z,4.17
2017-07-19T18:13:54.383Z,3.90
2017-07-19T18:16:21.928Z,4.60
2017-07-19T18:18:49.473Z,5.33
2017-07-19T18:21:17.016Z,5.00
2017-07-19T18:23:44.556Z,3.60
2017-07-19T18:26:12.033Z,5.30
2017-07-19T18:28:39.644Z,4.70
2017-07-19T18:31:07.124Z,5.27
2017-07-19T18:33:34.637Z,4.80
2017-07-19T18:36:02.144Z,4.70
2017-07-19T18:38:29.625Z,4.23
2017-07-19T18:40:57.109Z,4.83
2017-07-19T18:43:24.608Z,4.10
2017-07-19T18:45:52.093Z,4.30
2017-07-19T18:48:19.569Z,4.77
2017-07-19T18:50:47.089Z,4.77
2017-07-19T18:53:14.563Z,5.07
2017-07-19T18:55:42.056Z,4.80
2017-07-19T18:58:09.569Z,5.80
2017-07-19T19:00:37.145Z,6.60
2017-07-19T19:03:04.632Z,10.10
2017-07-19T19:05:32.141Z,4.50
2017-07-19T19:07:59.676Z,4.70
2017-07-19T19:10:27.224Z,4.90
2017-07-19T19:12:54.963Z,5.03
2017-07-19T19:15:22.513Z,4.60
2017-07-19T19:17:50.053Z,5.50
2017-07-19T19:20:17.594Z,6.40
2017-07-19T19:22:45.076Z,9.07
2017-07-19T19:25:13.612Z,4.93
2017-07-19T19:27:41.096Z,5.83
2017-07-19T19:30:08.836Z,5.30
2017-07-19T19:32:36.549Z,9.67
2017-07-19T19:35:04.036Z,6.60
2017-07-19T19:37:31.520Z,5.87
2017-07-19T19:39:59.032Z,5.77
2017-07-19T19:42:26.514Z,5.33
2017-07-19T19:44:54.001Z,4.97
2017-07-19T19:47:21.685Z,6.60
2017-07-19T19:49:49.182Z,5.37
2017-07-19T19:52:16.668Z,5.60
2017-07-19T19:54:44.949Z,5.80
2017-07-19T19:57:12.476Z,6.70
2017-07-19T19:59:39.957Z,5.77
2017-07-19T20:02:07.666Z,5.43
2017-07-19T20:04:35.148Z,6.40
2017-07-19T20:07:02.630Z,6.97
2017-07-19T20:09:30.921Z,6.17
2017-07-19T20:11:58.404Z,6.40
2017-07-19T20:14:25.893Z,6.10
2017-07-19T20:16:53.403Z,6.67
2017-07-19T20:19:20.985Z,7.50
2017-07-19T20:21:48.465Z,6.53
2017-07-19T20:24:16.072Z,6.63
2017-07-19T20:26:43.611Z,7.47
2017-07-19T20:29:11.156Z,8.20
2017-07-19T20:31:38.668Z,7.00
2017-07-19T20:34:06.158Z,7.07
2017-07-19T20:36:33.637Z,7.70
2017-07-19T20:39:01.236Z,7.30
2017-07-19T20:41:28.728Z,7.27
2017-07-19T20:43:56.227Z,7.50
2017-07-19T20:46:23.753Z,6.73
2017-07-19T20:48:51.993Z,7.40
2017-07-19T20:51:19.573Z,8.00
2017-07-19T20:53:47.346Z,7.00
2017-07-19T20:56:14.824Z,7.47
2017-07-19T20:58:42.408Z,7.67
2017-07-19T21:01:09.944Z,7.90
2017-07-19T21:03:37.485Z,8.30
2017-07-19T21:06:05.041Z,8.40
2017-07-19T21:08:32.575Z,8.70
2017-07-19T21:11:00.060Z,8.17
2017-07-19T21:13:27.560Z,9.00
2017-07-19T21:15:55.100Z,8.27
2017-07-19T21:18:22.652Z,8.07
2017-07-19T21:20:50.132Z,8.60
2017-07-19T21:23:17.633Z,9.20
2017-07-19T21:25:45.122Z,9.50
2017-07-19T21:28:12.826Z,9.47
2017-07-19T21:30:40.364Z,9.50
2017-07-19T21:33:07.848Z,10.43
2017-07-19T21:35:35.366Z,9.57
2017-07-19T21:38:02.857Z,11.00
2017-07-19T21:40:30.377Z,11.37
2017-07-19T21:42:57.872Z,11.40
2017-07-19T21:45:25.464Z,12.00
2017-07-19T21:47:53.008Z,12.00
2017-07-19T21:50:20.553Z,11.13
2017-07-19T21:52:48.061Z,12.33
2017-07-19T21:55:15.548Z,11.10
2017-07-19T21:57:43.076Z,12.60
2017-07-19T22:00:11.438Z,11.80
2017-07-19T22:02:38.924Z,12.53
2017-07-19T22:05:06.524Z,11.90
2017-07-19T22:07:34.009Z,11.67
2017-07-19T22:10:01.523Z,11.77
2017-07-19T22:12:29.063Z,11.57
2017-07-19T22:14:56.598Z,13.23
2017-07-19T22:17:24.089Z,11.80
2017-07-19T22:19:51.692Z,12.53
2017-07-19T22:22:19.175Z,11.30
2017-07-19T22:24:46.672Z,12.93
2017-07-19T22:27:14.216Z,12.80
2017-07-19T22:29:41.700Z,11.87
2017-07-19T22:32:09.189Z,12.90
2017-07-19T22:34:36.743Z,14.37
2017-07-19T22:37:04.229Z,12.80
2017-07-19T22:39:31.710Z,13.07
2017-07-19T22:41:59.260Z,12.47
2017-07-19T22:44:26.739Z,12.80
2017-07-19T22:46:54.243Z,13.63
2017-07-19T22:49:21.784Z,14.03
2017-07-19T22:51:49.268Z,13.37
2017-07-19T22:54:16.772Z,15.87
2017-07-19T22:56:44.416Z,16.33
2017-07-19T22:59:11.957Z,16.63
2017-07-19T23:01:39.468Z,15.60
2017-07-19T23:04:07.039Z,17.70
2017-07-19T23:06:34.596Z,17.50
2017-07-19T23:09:02.138Z,17.13
2017-07-19T23:11:29.682Z,16.90
2017-07-19T23:13:57.172Z,17.40
2017-07-19T23:16:24.773Z,16.63
2017-07-19T23:18:52.307Z,17.37
2017-07-19T23:21:19.793Z,17.37
2017-07-19T23:23:47.322Z,16.57
2017-07-19T23:26:15.148Z,16.70
2017-07-19T23:28:42.632Z,16.97
2017-07-19T23:31:10.128Z,18.10
2017-07-19T23:33:37.620Z,15.20
2017-07-19T23:36:05.216Z,17.60
2017-07-19T23:38:33.608Z,17.67
2017-07-19T23:41:01.097Z,17.70
2017-07-19T23:43:28.589Z,17.03
2017-07-19T23:45:56.333Z,17.20
2017-07-19T23:48:23.816Z,18.43
2017-07-19T23:50:51.296Z,18.83
2017-07-19T23:53:19.664Z,19.43
2017-07-19T23:55:47.940Z,18.60
2017-07-19T23:58:15.425Z,19.67
